Time;durP1;ratioP1;P1;durP2;ratioP2;P2;SDS_P1;SDS_P2;PMS_P1;PMS_P2;Temp;Humidity;BMP_temperature;BMP_pressure;BME280_temperature;BME280_humidity;BME280_pressure;Samples;Min_cycle;Max_cycle;Signal;HPM_P1;HPM_P2
2023/03/10 00:01:17;;;;;;;3.80;1.65;;;;;;;10.18;76.30;93888.88;5142932;27;20229;-79
2023/03/10 00:03:45;;;;;;;2.13;1.58;;;;;;;10.24;76.44;93895.66;5146168;27;20216;-79
2023/03/10 00:06:14;;;;;;;3.17;1.75;;;;;;;10.21;76.65;93890.94;5141729;27;20197;-77
2023/03/10 00:08:42;;;;;;;2.85;1.73;;;;;;;10.23;76.30;93896.81;5132845;27;20289;-79
2023/03/10 00:11:09;;;;;;;3.40;1.60;;;;;;;10.26;76.20;93898.78;5141078;27;20278;-78
2023/03/10 00:13:36;;;;;;;3.80;1.52;;;;;;;10.24;76.33;93901.09;5144103;27;20664;-80
2023/03/10 00:16:03;;;;;;;2.90;1.58;;;;;;;10.09;76.93;93897.13;5140054;27;20272;-78
2023/03/10 00:18:31;;;;;;;3.03;1.50;;;;;;;9.93;77.73;93904.38;5151131;27;20196;-79
2023/03/10 00:20:59;;;;;;;4.07;1.63;;;;;;;9.79;78.20;93904.75;5140750;27;20724;-79
2023/03/10 00:23:26;;;;;;;3.42;1.98;;;;;;;9.60;78.95;93907.22;5149029;27;20600;-80
2023/03/10 00:25:55;;;;;;;4.35;2.15;;;;;;;9.40;79.37;93908.94;5150859;27;20203;-79
2023/03/10 00:28:22;;;;;;;6.65;1.90;;;;;;;9.41;79.96;93904.31;5149866;27;20192;-79
2023/03/10 00:30:58;;;;;;;2.85;1.58;;;;;;;9.44;79.99;93917.91;5137472;27;20228;-80
2023/03/10 00:33:25;;;;;;;5.88;1.80;;;;;;;9.39;80.16;93909.25;5137442;27;20189;-80
2023/03/10 00:36:03;;;;;;;4.40;2.05;;;;;;;9.36;79.89;93907.22;5137350;27;20201;-79
2023/03/10 00:38:29;;;;;;;3.65;2.22;;;;;;;9.36;80.64;93912.63;5141067;27;20201;-80
2023/03/10 00:40:59;;;;;;;2.30;1.65;;;;;;;9.32;80.61;93906.31;5132764;27;20926;-80
2023/03/10 00:43:27;;;;;;;4.25;2.42;;;;;;;9.36;80.15;93901.81;5139921;27;20197;-78
2023/03/10 00:45:54;;;;;;;3.72;2.22;;;;;;;9.30;80.31;93898.53;5143608;27;20740;-80
2023/03/10 00:48:21;;;;;;;5.43;1.58;;;;;;;9.40;80.09;93897.34;5140848;27;20196;-80
2023/03/10 00:50:48;;;;;;;3.55;1.58;;;;;;;9.36;80.44;93901.81;5131992;27;20233;-80
2023/03/10 00:53:16;;;;;;;1.55;1.30;;;;;;;9.38;81.21;93894.16;5129908;27;20284;-80
2023/03/10 00:55:43;;;;;;;3.80;1.80;;;;;;;9.32;81.50;93885.50;5148354;27;20688;-80
2023/03/10 00:58:10;;;;;;;3.38;1.70;;;;;;;9.27;81.66;93889.22;5138200;27;20204;-79
2023/03/10 01:00:36;;;;;;;2.22;1.88;;;;;;;9.33;82.11;93892.47;5143495;27;20221;-80
2023/03/10 01:03:03;;;;;;;3.17;1.60;;;;;;;9.24;81.85;93892.59;5129467;27;20552;-80
2023/03/10 01:05:30;;;;;;;2.03;1.30;;;;;;;9.50;80.53;93888.75;5143719;27;20201;-80
2023/03/10 01:07:57;;;;;;;6.03;1.83;;;;;;;9.31;81.31;93899.34;5141601;27;20535;-78
2023/03/10 01:10:25;;;;;;;3.33;1.80;;;;;;;9.18;81.84;93899.31;5150245;27;20223;-79
2023/03/10 01:12:52;;;;;;;2.72;1.58;;;;;;;9.13;82.21;93906.88;5150038;27;20201;-78
2023/03/10 01:15:19;;;;;;;2.38;1.80;;;;;;;9.13;81.71;93904.97;5136442;27;20216;-78
2023/03/10 01:17:45;;;;;;;4.00;1.95;;;;;;;9.08;82.22;93901.69;5137159;27;20703;-79
2023/03/10 01:20:15;;;;;;;5.40;2.00;;;;;;;9.01;82.61;93902.25;5129193;27;20200;-79
2023/03/10 01:22:43;;;;;;;6.13;2.40;;;;;;;8.93;83.20;93884.22;5141673;27;20750;-79
2023/03/10 01:25:14;;;;;;;4.72;1.98;;;;;;;8.95;83.06;93881.19;5143349;27;20300;-79
2023/03/10 01:27:42;;;;;;;2.92;1.80;;;;;;;8.94;83.30;93891.19;5142972;27;20279;-79
2023/03/10 01:30:10;;;;;;;5.57;2.50;;;;;;;9.05;83.05;93876.13;5139983;27;20226;-78
2023/03/10 01:32:37;;;;;;;4.75;2.15;;;;;;;8.98;83.13;93875.91;5149313;27;20661;-79
2023/03/10 01:35:05;;;;;;;2.85;2.08;;;;;;;9.10;82.86;93875.91;5129285;28;20204;-78
2023/03/10 01:37:32;;;;;;;3.83;2.20;;;;;;;8.95;82.91;93881.19;5143156;27;20204;-79
2023/03/10 01:39:59;;;;;;;5.10;2.15;;;;;;;8.97;83.42;93879.72;5129164;28;20200;-79
2023/03/10 01:42:25;;;;;;;5.47;2.15;;;;;;;8.87;84.02;93880.16;5142753;27;20212;-79
2023/03/10 01:45:09;;;;;;;7.20;2.28;;;;;;;8.85;84.25;93887.81;5137688;27;20249;-79
2023/03/10 01:47:36;;;;;;;3.83;2.05;;;;;;;8.78;84.15;93898.34;5135608;27;20196;-79
2023/03/10 01:50:05;;;;;;;3.17;2.10;;;;;;;8.68;83.53;93898.78;5138486;27;20787;-79
2023/03/10 01:52:33;;;;;;;3.38;1.60;;;;;;;8.61;84.17;93901.25;5142912;27;20650;-79
2023/03/10 01:55:05;;;;;;;5.70;1.90;;;;;;;8.51;84.75;93900.53;5140183;27;20603;-80
2023/03/10 01:57:38;;;;;;;2.65;1.63;;;;;;;8.86;83.85;93900.97;5135746;27;20191;-78
2023/03/10 02:00:11;;;;;;;10.05;2.33;;;;;;;8.60;84.42;93910.47;5136916;27;20282;-79
2023/03/10 02:02:46;;;;;;;8.40;2.33;;;;;;;8.49;85.15;93902.75;5136106;27;20191;-79
2023/03/10 02:05:14;;;;;;;5.10;2.08;;;;;;;8.36;85.74;93903.84;5136108;27;20236;-79
2023/03/10 02:07:43;;;;;;;4.25;2.13;;;;;;;8.40;85.56;93902.06;5141261;27;20205;-80
2023/03/10 02:10:12;;;;;;;4.03;1.90;;;;;;;8.34;85.90;93900.69;5142801;27;20757;-80
2023/03/10 02:12:40;;;;;;;2.75;1.60;;;;;;;8.34;86.25;93895.28;5129378;28;20273;-79
2023/03/10 02:15:09;;;;;;;3.38;1.70;;;;;;;8.37;86.08;93894.63;5142486;27;20228;-79
2023/03/10 02:17:37;;;;;;;3.28;1.90;;;;;;;8.43;86.17;93896.00;5139141;27;20317;-79
2023/03/10 02:20:29;;;;;;;5.45;1.73;;;;;;;8.54;86.14;93899.06;5132197;27;20193;-78
2023/03/10 02:22:56;;;;;;;3.85;2.00;;;;;;;8.65;85.56;93899.44;5143473;27;20204;-79
2023/03/10 02:25:34;;;;;;;3.25;1.92;;;;;;;8.63;85.56;93901.69;5149101;27;20245;-79
2023/03/10 02:28:04;;;;;;;3.83;1.80;;;;;;;8.61;86.01;93901.25;5135764;27;20217;-79
2023/03/10 02:30:34;;;;;;;5.13;2.28;;;;;;;8.69;86.33;93901.16;5140140;27;20220;-80
2023/03/10 02:33:06;;;;;;;3.50;1.85;;;;;;;8.72;86.17;93907.81;5146022;27;20197;-81
2023/03/10 02:35:33;;;;;;;2.28;1.63;;;;;;;8.82;85.09;93893.88;5140230;27;20199;-79
2023/03/10 02:38:00;;;;;;;4.55;1.80;;;;;;;8.93;85.42;93889.63;5139591;27;20207;-79
2023/03/10 02:40:33;;;;;;;5.55;1.80;;;;;;;8.94;84.97;93891.19;5141762;27;20686;-81
2023/03/10 02:43:03;;;;;;;2.28;1.58;;;;;;;9.12;84.56;93892.59;5132851;27;20236;-80
2023/03/10 02:45:35;;;;;;;3.97;1.80;;;;;;;9.13;84.73;93886.06;5145744;27;20192;-80
2023/03/10 02:48:02;;;;;;;6.28;2.15;;;;;;;9.22;84.65;93892.13;5139786;27;20196;-78
2023/03/10 02:50:36;;;;;;;4.40;1.83;;;;;;;9.24;83.95;93895.28;5153612;27;20236;-78
2023/03/10 02:53:10;;;;;;;3.55;2.00;;;;;;;9.11;84.71;93896.41;5140283;27;20210;-81
2023/03/10 02:55:37;;;;;;;4.22;1.52;;;;;;;9.22;84.50;93886.72;5152644;27;20192;-79
2023/03/10 02:58:06;;;;;;;5.60;1.90;;;;;;;9.26;84.17;93893.03;5143622;27;20273;-80
2023/03/10 03:00:36;;;;;;;4.03;2.00;;;;;;;9.34;84.13;93887.84;5134198;27;20747;-78
2023/03/10 03:03:03;;;;;;;2.85;1.77;;;;;;;9.36;83.90;93889.09;5152268;27;20615;-79
2023/03/10 03:05:29;;;;;;;1.73;1.20;;;;;;;9.63;82.47;93890.34;5138810;27;20199;-79
2023/03/10 03:07:56;;;;;;;2.60;1.90;;;;;;;9.54;82.89;93897.78;5142972;27;20261;-80
2023/03/10 03:10:23;;;;;;;5.03;1.95;;;;;;;9.51;82.95;93898.44;5134557;27;20225;-79
2023/03/10 03:12:50;;;;;;;3.63;1.67;;;;;;;9.51;82.78;93883.03;5142446;27;20265;-79
2023/03/10 03:15:19;;;;;;;4.05;1.77;;;;;;;9.65;82.88;93893.50;5134629;27;20209;-80
2023/03/10 03:17:45;;;;;;;3.10;1.60;;;;;;;9.69;82.87;93888.97;5142621;27;20286;-79
2023/03/10 03:20:13;;;;;;;2.85;1.90;;;;;;;9.55;82.30;93877.72;5145611;27;20692;-79
2023/03/10 03:22:41;;;;;;;3.70;1.73;;;;;;;9.45;82.86;93883.56;5144727;27;20510;-79
2023/03/10 03:25:09;;;;;;;4.25;2.25;;;;;;;9.51;83.43;93887.63;5138378;27;20207;-80
2023/03/10 03:27:37;;;;;;;3.42;1.85;;;;;;;9.54;83.01;93889.66;5152388;27;20227;-79
2023/03/10 03:30:05;;;;;;;6.65;2.00;;;;;;;9.32;83.32;93879.28;5143018;27;20834;-79
2023/03/10 03:32:35;;;;;;;5.00;3.33;;;;;;;9.02;84.09;93882.19;5152039;27;20200;-78
2023/03/10 03:35:02;;;;;;;6.55;3.20;;;;;;;9.00;84.69;93879.06;5138686;27;20253;-79
2023/03/10 03:37:29;;;;;;;7.32;3.70;;;;;;;9.14;85.01;93874.13;5138662;27;20193;-79
2023/03/10 03:39:56;;;;;;;7.40;3.58;;;;;;;9.22;84.57;93875.13;5144946;27;20205;-78
2023/03/10 03:42:23;;;;;;;5.28;2.72;;;;;;;9.32;84.30;93879.28;5145787;27;20200;-80
2023/03/10 03:44:49;;;;;;;2.70;1.65;;;;;;;9.31;84.04;93875.00;5139042;27;20203;-78
2023/03/10 03:47:16;;;;;;;5.93;2.60;;;;;;;9.27;84.11;93878.41;5151557;27;20196;-79
2023/03/10 03:49:44;;;;;;;5.18;2.13;;;;;;;9.28;84.25;93884.59;5144019;27;20242;-80
2023/03/10 03:52:11;;;;;;;4.05;2.80;;;;;;;9.31;84.57;93883.91;5145338;27;20204;-80
2023/03/10 03:54:38;;;;;;;3.85;2.05;;;;;;;9.50;83.67;93888.75;5139226;27;20666;-79
2023/03/10 03:57:05;;;;;;;2.88;1.83;;;;;;;9.57;83.13;93878.16;5150018;27;20200;-79
2023/03/10 03:59:31;;;;;;;4.15;2.00;;;;;;;9.26;83.93;93876.84;5139520;27;20233;-79
2023/03/10 04:01:58;;;;;;;2.75;1.90;;;;;;;9.20;85.06;93883.56;5137600;27;20284;-79
2023/03/10 04:04:25;;;;;;;2.28;1.73;;;;;;;9.21;84.80;93890.56;5151404;27;20265;-79
2023/03/10 04:06:53;;;;;;;2.85;1.80;;;;;;;9.49;84.37;93892.59;5150355;27;20722;-79
2023/03/10 04:09:20;;;;;;;4.07;1.80;;;;;;;9.57;83.44;93886.25;5140542;27;20279;-79
2023/03/10 04:11:46;;;;;;;4.75;2.33;;;;;;;9.63;83.12;93888.41;5135030;27;21058;-79
2023/03/10 04:14:13;;;;;;;4.15;1.90;;;;;;;9.59;83.91;93889.44;5137762;27;20216;-80
2023/03/10 04:16:40;;;;;;;3.67;2.08;;;;;;;9.63;83.56;93869.50;5145085;27;20269;-79
2023/03/10 04:19:07;;;;;;;4.18;1.83;;;;;;;9.79;83.01;93872.28;5141262;27;20269;-80
2023/03/10 04:21:34;;;;;;;1.85;1.48;;;;;;;9.89;82.55;93879.94;5140925;27;20195;-80
2023/03/10 04:24:03;;;;;;;2.85;2.00;;;;;;;9.72;82.84;93868.56;5143090;27;20197;-79
2023/03/10 04:26:30;;;;;;;3.17;2.15;;;;;;;9.84;83.22;93874.75;5140890;27;20279;-79
2023/03/10 04:28:57;;;;;;;5.18;2.90;;;;;;;9.73;83.19;93876.34;5141531;27;20201;-80
2023/03/10 04:31:25;;;;;;;6.03;2.30;;;;;;;9.72;82.77;93861.25;5135831;27;20220;-80
2023/03/10 04:33:52;;;;;;;4.97;2.63;;;;;;;9.59;83.40;93862.38;5134559;27;20253;-79
2023/03/10 04:36:20;;;;;;;4.78;2.55;;;;;;;9.67;83.61;93866.91;5144189;27;20791;-80
2023/03/10 04:38:47;;;;;;;4.88;2.53;;;;;;;9.79;83.30;93864.19;5146164;27;20599;-80
2023/03/10 04:41:16;;;;;;;4.72;1.70;;;;;;;9.81;82.81;93853.81;5136925;27;20742;-79
2023/03/10 04:43:43;;;;;;;4.28;2.13;;;;;;;9.85;82.46;93849.28;5138676;27;20676;-79
2023/03/10 04:46:10;;;;;;;2.90;2.00;;;;;;;9.85;82.83;93857.38;5143389;27;20605;-80
2023/03/10 04:48:37;;;;;;;9.27;2.70;;;;;;;9.88;82.72;93859.41;5132575;27;20251;-80
2023/03/10 04:51:07;;;;;;;5.05;2.00;;;;;;;9.76;83.00;93845.91;5144998;27;20228;-79
2023/03/10 04:53:35;;;;;;;3.40;2.05;;;;;;;9.60;82.95;93845.03;5137748;27;20284;-80
2023/03/10 04:56:04;;;;;;;5.30;2.33;;;;;;;9.53;83.83;93848.34;5149819;27;20200;-79
2023/03/10 04:58:32;;;;;;;6.13;2.38;;;;;;;9.56;84.06;93839.53;5149378;27;20597;-79
2023/03/10 05:00:59;;;;;;;3.80;1.95;;;;;;;9.62;83.93;93845.50;5137868;27;20197;-80
2023/03/10 05:03:26;;;;;;;5.75;2.15;;;;;;;9.68;84.06;93829.84;5147526;27;20196;-81
2023/03/10 05:05:53;;;;;;;3.72;1.60;;;;;;;9.87;83.06;93824.59;5150175;27;20259;-78
2023/03/10 05:08:20;;;;;;;3.97;1.95;;;;;;;9.83;83.55;93835.31;5149497;27;20620;-80
2023/03/10 05:10:46;;;;;;;3.70;1.88;;;;;;;9.84;83.86;93826.06;5142941;27;20224;-79
2023/03/10 05:13:13;;;;;;;4.60;2.78;;;;;;;9.89;83.88;93820.41;5146440;27;20698;-81
2023/03/10 05:15:42;;;;;;;3.83;2.15;;;;;;;9.68;83.69;93817.09;5150874;27;20599;-80
2023/03/10 05:18:11;;;;;;;9.65;2.72;;;;;;;9.73;83.92;93819.56;5134674;27;20278;-79
2023/03/10 05:20:39;;;;;;;10.68;2.70;;;;;;;9.90;83.84;93822.00;5130806;27;20193;-81
2023/03/10 05:23:06;;;;;;;4.15;2.67;;;;;;;9.82;83.15;93817.53;5133090;27;20594;-79
2023/03/10 05:25:33;;;;;;;8.55;2.90;;;;;;;9.65;83.59;93815.06;5141613;27;20197;-79
2023/03/10 05:27:59;;;;;;;8.50;3.00;;;;;;;9.66;83.90;93819.34;5136114;27;20627;-79
2023/03/10 05:30:26;;;;;;;6.40;3.65;;;;;;;9.81;83.15;93821.34;5148278;27;20228;-79
2023/03/10 05:32:54;;;;;;;7.50;3.53;;;;;;;9.67;83.68;93812.81;5134099;27;20204;-79
2023/03/10 05:35:21;;;;;;;10.25;4.18;;;;;;;9.64;83.82;93805.38;5140231;27;20193;-79
2023/03/10 05:37:48;;;;;;;6.30;3.20;;;;;;;9.75;84.09;93809.19;5147586;27;20217;-80
2023/03/10 05:40:18;;;;;;;14.60;3.38;;;;;;;9.88;83.13;93809.94;5140039;27;20200;-80
2023/03/10 05:42:45;;;;;;;14.13;4.18;;;;;;;9.99;82.83;93801.00;5136814;27;20288;-80
2023/03/10 05:45:12;;;;;;;12.88;4.30;;;;;;;10.48;81.41;93811.66;5139351;27;20371;-80
2023/03/10 05:47:39;;;;;;;10.57;3.90;;;;;;;10.48;79.43;93808.94;5143348;27;20265;-79
2023/03/10 05:50:09;;;;;;;7.28;2.13;;;;;;;10.16;79.86;93809.94;5141872;27;20199;-79
2023/03/10 05:52:38;;;;;;;2.80;1.55;;;;;;;9.90;80.54;93802.28;5145674;27;20209;-80
2023/03/10 05:55:05;;;;;;;6.88;2.22;;;;;;;9.96;80.77;93799.00;5141783;27;20202;-80
2023/03/10 05:57:32;;;;;;;4.95;2.17;;;;;;;10.19;79.85;93804.69;5136732;27;20800;-79
2023/03/10 05:59:59;;;;;;;3.30;1.95;;;;;;;10.28;79.06;93796.38;5137997;27;20197;-80
2023/03/10 06:02:26;;;;;;;3.97;2.08;;;;;;;10.35;78.36;93795.81;5135322;27;20208;-82
2023/03/10 06:04:52;;;;;;;2.22;1.60;;;;;;;10.04;79.55;93799.97;5139162;27;20197;-81
2023/03/10 06:07:20;;;;;;;6.35;2.58;;;;;;;10.14;79.50;93795.97;5143804;27;20613;-82
2023/03/10 06:09:47;;;;;;;6.00;2.40;;;;;;;10.46;78.68;93805.78;5144081;27;20204;-80
2023/03/10 06:12:14;;;;;;;5.05;2.30;;;;;;;10.63;77.39;93800.06;5148219;27;20639;-82
2023/03/10 06:14:41;;;;;;;3.80;2.28;;;;;;;10.70;76.93;93796.72;5147190;27;20200;-80
2023/03/10 06:17:07;;;;;;;5.03;1.98;;;;;;;10.60;77.21;93803.44;5140849;27;20232;-81
2023/03/10 06:19:34;;;;;;;8.25;3.30;;;;;;;10.54;77.91;93807.53;5141106;27;20643;-80
2023/03/10 06:22:01;;;;;;;7.40;2.67;;;;;;;10.55;78.02;93805.63;5147251;27;20258;-80
2023/03/10 06:24:29;;;;;;;6.47;2.97;;;;;;;10.88;77.46;93808.03;5147998;27;20429;-80
2023/03/10 06:26:56;;;;;;;3.83;2.55;;;;;;;11.28;76.94;93814.03;5133313;27;20231;-80
2023/03/10 06:29:23;;;;;;;6.10;3.20;;;;;;;11.05;75.76;93802.25;5138919;27;20205;-82
2023/03/10 06:31:49;;;;;;;7.43;2.35;;;;;;;10.67;77.27;93803.63;5146130;27;20229;-79
2023/03/10 06:34:16;;;;;;;9.00;2.85;;;;;;;10.65;77.55;93814.03;5133477;27;20249;-81
2023/03/10 06:36:43;;;;;;;2.80;2.28;;;;;;;10.46;78.10;93808.50;5141362;27;20200;-78
2023/03/10 06:39:10;;;;;;;4.90;3.05;;;;;;;10.45;78.66;93806.91;5140960;27;20200;-82
2023/03/10 06:41:39;;;;;;;9.85;4.03;;;;;;;10.81;77.74;93807.81;5147381;27;20260;-80
2023/03/10 06:44:05;;;;;;;4.68;2.83;;;;;;;10.98;76.91;93807.47;5148053;27;20208;-80
2023/03/10 06:46:32;;;;;;;13.80;3.80;;;;;;;11.02;76.75;93808.38;5146567;27;20265;-80
2023/03/10 06:48:59;;;;;;;14.77;3.10;;;;;;;11.35;75.92;93808.75;5148333;27;20249;-80
2023/03/10 06:51:26;;;;;;;8.65;3.00;;;;;;;11.66;74.96;93807.91;5145473;27;20364;-80
2023/03/10 06:53:53;;;;;;;6.85;2.92;;;;;;;11.90;73.87;93804.19;5147248;27;20205;-80
2023/03/10 06:56:21;;;;;;;5.38;3.25;;;;;;;12.07;72.91;93816.56;5153879;27;20272;-80
2023/03/10 06:58:49;;;;;;;4.45;3.17;;;;;;;12.30;72.22;93811.22;5153308;27;20228;-81
2023/03/10 07:01:24;;;;;;;14.88;4.32;;;;;;;12.31;71.82;93812.78;5153616;27;20212;-80
2023/03/10 07:03:51;;;;;;;8.55;3.72;;;;;;;12.41;71.38;93817.66;5153663;27;20195;-81
2023/03/10 07:06:18;;;;;;;7.70;3.13;;;;;;;12.23;71.66;93811.06;5145510;27;20220;-82
2023/03/10 07:08:45;;;;;;;8.93;3.65;;;;;;;12.18;71.98;93809.44;5151669;27;20220;-83
2023/03/10 07:11:12;;;;;;;18.25;2.83;;;;;;;12.18;71.77;93808.63;5145610;27;20315;-80
2023/03/10 07:13:39;;;;;;;9.68;4.18;;;;;;;12.10;72.02;93797.66;5138420;27;20208;-81
2023/03/10 07:16:08;;;;;;;8.80;4.30;;;;;;;12.14;72.03;93786.09;5147218;27;20264;-81
2023/03/10 07:18:35;;;;;;;8.30;3.88;;;;;;;12.55;71.16;93785.31;5151019;27;20739;-82
2023/03/10 07:21:02;;;;;;;8.77;4.10;;;;;;;13.06;69.42;93782.31;5146409;27;20197;-81
2023/03/10 07:23:28;;;;;;;7.78;4.72;;;;;;;13.13;69.13;93787.84;5154633;27;20283;-82
2023/03/10 07:25:57;;;;;;;7.97;3.40;;;;;;;12.82;69.38;93784.25;5141788;27;20759;-84
2023/03/10 07:28:25;;;;;;;8.38;3.95;;;;;;;12.69;69.81;93784.81;5152805;27;20200;-82
2023/03/10 07:30:52;;;;;;;10.45;4.95;;;;;;;12.49;70.58;93775.09;5145747;27;20200;-81
2023/03/10 07:33:20;;;;;;;10.38;3.70;;;;;;;12.93;69.69;93779.00;5141358;27;20204;-83
2023/03/10 07:35:47;;;;;;;9.02;5.28;;;;;;;13.62;67.68;93778.94;5143883;27;20200;-81
2023/03/10 07:38:14;;;;;;;10.75;4.90;;;;;;;13.68;66.90;93780.16;5148267;27;20241;-82
2023/03/10 07:40:41;;;;;;;6.28;3.58;;;;;;;13.44;67.38;93784.09;5133472;27;20193;-81
2023/03/10 07:43:07;;;;;;;7.80;3.70;;;;;;;13.73;66.67;93777.13;5140719;27;20608;-81
2023/03/10 07:45:34;;;;;;;4.43;2.80;;;;;;;13.42;67.22;93772.81;5141019;27;20843;-79
2023/03/10 07:48:01;;;;;;;7.88;2.78;;;;;;;13.63;66.58;93761.47;5141868;27;20669;-82
2023/03/10 07:50:29;;;;;;;4.75;2.60;;;;;;;13.78;66.40;93757.78;5155015;27;20208;-82
2023/03/10 07:52:56;;;;;;;8.07;4.10;;;;;;;13.78;66.09;93752.34;5133197;27;20227;-83
2023/03/10 07:55:22;;;;;;;8.07;3.97;;;;;;;13.23;67.76;93754.66;5148331;27;20221;-83
2023/03/10 07:57:49;;;;;;;9.82;3.85;;;;;;;13.56;67.31;93745.00;5138970;27;20273;-81
2023/03/10 08:00:17;;;;;;;8.30;4.88;;;;;;;14.34;65.36;93735.13;5138368;27;20257;-81
2023/03/10 08:02:44;;;;;;;9.13;4.28;;;;;;;14.52;63.79;93730.63;5146656;27;20593;-82
2023/03/10 08:05:13;;;;;;;6.03;3.53;;;;;;;14.23;64.86;93730.31;5140871;27;20234;-82
2023/03/10 08:07:42;;;;;;;8.18;2.90;;;;;;;13.95;65.55;93721.81;5142997;27;20204;-81
2023/03/10 08:10:10;;;;;;;6.45;2.50;;;;;;;14.49;64.45;93721.28;5148046;27;20244;-82
2023/03/10 08:12:37;;;;;;;8.20;3.03;;;;;;;14.99;63.10;93720.94;5142410;27;20231;-83
2023/03/10 08:15:05;;;;;;;7.38;3.92;;;;;;;15.23;62.10;93712.16;5148020;27;20230;-81
2023/03/10 08:17:32;;;;;;;6.22;2.83;;;;;;;15.02;61.80;93701.13;5142001;27;20264;-81
2023/03/10 08:19:59;;;;;;;5.55;3.33;;;;;;;14.77;62.86;93701.66;5149405;27;20212;-84
2023/03/10 08:22:27;;;;;;;12.27;4.07;;;;;;;15.02;62.72;93695.66;5151993;27;20201;-81
2023/03/10 08:24:55;;;;;;;8.48;3.83;;;;;;;15.50;61.44;93686.22;5152041;27;20219;-83
2023/03/10 08:27:22;;;;;;;7.10;3.55;;;;;;;15.40;61.16;93681.50;5142580;27;20651;-84
2023/03/10 08:29:49;;;;;;;8.98;3.67;;;;;;;15.49;61.39;93679.19;5146987;27;20675;-84
2023/03/10 08:32:16;;;;;;;8.68;3.47;;;;;;;15.49;61.14;93681.94;5141002;27;20588;-80
2023/03/10 08:34:43;;;;;;;7.47;3.83;;;;;;;15.80;60.11;93679.78;5140141;27;20378;-86
2023/03/10 08:37:10;;;;;;;6.53;3.60;;;;;;;15.52;60.96;93666.75;5131584;27;20203;-82
2023/03/10 08:39:36;;;;;;;8.88;3.55;;;;;;;15.45;60.85;93655.78;5149848;27;20285;-82
2023/03/10 08:42:05;;;;;;;6.43;3.40;;;;;;;15.33;61.54;93653.38;5140810;27;20205;-80
2023/03/10 08:44:31;;;;;;;7.85;3.55;;;;;;;15.34;61.40;93649.47;5151274;27;20199;-82
2023/03/10 08:46:58;;;;;;;7.10;3.15;;;;;;;16.29;59.75;93638.94;5153308;27;20245;-81
2023/03/10 08:49:25;;;;;;;6.10;3.58;;;;;;;16.94;57.75;93648.81;5152472;27;20287;-81
2023/03/10 08:51:52;;;;;;;8.68;3.75;;;;;;;17.07;57.39;93637.47;5140340;27;20224;-81
2023/03/10 08:54:20;;;;;;;8.10;3.63;;;;;;;17.37;56.13;93626.84;5136797;27;20347;-82
2023/03/10 08:56:47;;;;;;;8.15;3.83;;;;;;;17.10;56.17;93631.19;5154737;27;20298;-81
2023/03/10 08:59:15;;;;;;;7.05;3.05;;;;;;;16.39;58.16;93631.94;5138340;27;20204;-82
2023/03/10 09:01:42;;;;;;;7.35;3.42;;;;;;;16.30;59.34;93635.03;5139232;27;20208;-82
2023/03/10 09:04:09;;;;;;;5.13;2.65;;;;;;;17.03;56.41;93632.00;5149518;27;20204;-81
2023/03/10 09:06:36;;;;;;;4.13;2.72;;;;;;;17.47;55.78;93617.84;5139094;27;20686;-82
2023/03/10 09:09:10;;;;;;;5.80;2.83;;;;;;;17.15;55.46;93617.13;5138488;27;20608;-81
2023/03/10 09:11:38;;;;;;;7.15;3.25;;;;;;;17.16;55.28;93618.69;5151532;27;20651;-82
2023/03/10 09:14:05;;;;;;;6.07;3.25;;;;;;;17.24;55.71;93620.22;5139561;27;20208;-82
2023/03/10 09:16:33;;;;;;;6.18;3.20;;;;;;;17.14;55.29;93618.28;5136754;27;20281;-81
2023/03/10 09:19:01;;;;;;;4.45;2.90;;;;;;;16.90;55.67;93622.63;5151935;27;20208;-81
2023/03/10 09:21:29;;;;;;;5.40;3.28;;;;;;;16.33;57.31;93617.09;5137629;27;20201;-79
2023/03/10 09:23:56;;;;;;;6.45;3.33;;;;;;;16.26;57.73;93612.38;5151072;27;20232;-85
2023/03/10 09:26:23;;;;;;;8.15;3.40;;;;;;;15.85;59.62;93602.94;5148998;27;20976;-81
2023/03/10 09:28:51;;;;;;;7.60;3.38;;;;;;;16.34;58.22;93600.31;5136113;27;20601;-82
2023/03/10 09:31:21;;;;;;;5.78;3.10;;;;;;;17.24;55.87;93593.63;5148856;27;20673;-81
2023/03/10 09:33:49;;;;;;;5.55;3.22;;;;;;;16.98;55.63;93597.59;5141418;27;20205;-84
2023/03/10 09:36:16;;;;;;;6.43;3.70;;;;;;;16.35;57.22;93604.59;5144751;27;20197;-81
2023/03/10 09:38:43;;;;;;;10.20;3.50;;;;;;;16.47;57.46;93602.66;5129287;28;20601;-80
2023/03/10 09:41:33;;;;;;;5.60;3.35;;;;;;;16.26;57.69;93603.44;5148931;27;20204;-80
2023/03/10 09:44:07;;;;;;;7.03;3.67;;;;;;;16.57;56.66;93601.88;5137175;27;20192;-81
2023/03/10 09:46:42;;;;;;;7.15;3.47;;;;;;;17.03;55.85;93583.53;5146028;27;20199;-82
2023/03/10 09:49:19;;;;;;;8.70;3.50;;;;;;;17.12;55.26;93585.06;5149708;27;20201;-81
2023/03/10 09:51:50;;;;;;;6.43;3.70;;;;;;;16.54;56.47;93586.25;5145445;27;20225;-80
2023/03/10 09:54:36;;;;;;;7.72;3.53;;;;;;;16.81;56.36;93583.94;5155329;27;20200;-82
2023/03/10 09:57:13;;;;;;;7.07;3.60;;;;;;;16.80;56.16;93580.44;5153613;27;20223;-83
2023/03/10 09:59:43;;;;;;;8.57;3.88;;;;;;;16.38;57.11;93586.66;5143827;27;20926;-82
2023/03/10 10:02:20;;;;;;;9.70;4.32;;;;;;;16.21;57.69;93574.53;5140982;27;20555;-80
2023/03/10 10:04:52;;;;;;;9.48;4.30;;;;;;;15.58;59.90;93567.75;5143970;27;20241;-82
2023/03/10 10:07:22;;;;;;;9.10;4.13;;;;;;;15.42;60.27;93569.22;5148630;27;20192;-82
2023/03/10 10:09:56;;;;;;;12.18;4.80;;;;;;;15.30;60.53;93556.72;5147365;27;20698;-81
2023/03/10 10:12:26;;;;;;;7.60;4.63;;;;;;;15.19;60.73;93556.63;5141966;27;20219;-82
2023/03/10 10:14:57;;;;;;;8.45;4.43;;;;;;;15.01;61.62;93544.09;5140066;27;20197;-81
2023/03/10 10:17:40;;;;;;;8.32;4.55;;;;;;;14.76;62.71;93544.72;5134998;27;20232;-81
2023/03/10 10:20:17;;;;;;;8.55;4.75;;;;;;;14.82;62.68;93547.88;5147869;27;20284;-81
2023/03/10 10:22:44;;;;;;;11.70;4.47;;;;;;;14.87;62.49;93555.69;5147816;27;20192;-81
2023/03/10 10:25:18;;;;;;;5.63;4.40;;;;;;;14.91;62.52;93561.94;5148480;27;20332;-82
2023/03/10 10:27:46;;;;;;;11.98;4.97;;;;;;;15.08;61.74;93539.44;5148354;27;20196;-83
2023/03/10 10:30:28;;;;;;;11.13;4.88;;;;;;;15.09;61.88;93546.47;5145252;27;20328;-83
2023/03/10 10:32:57;;;;;;;11.65;4.78;;;;;;;15.16;62.01;93540.28;5151604;27;20228;-81
2023/03/10 10:35:27;;;;;;;9.65;5.20;;;;;;;14.88;62.74;93547.16;5154414;27;20208;-82
2023/03/10 10:38:03;;;;;;;7.32;5.18;;;;;;;14.91;62.66;93543.63;5150569;27;20625;-82
2023/03/10 10:40:33;;;;;;;9.18;4.85;;;;;;;15.03;62.66;93536.31;5146289;27;20218;-81
2023/03/10 10:43:04;;;;;;;12.68;5.30;;;;;;;15.00;62.90;93540.56;5148484;27;20193;-82
2023/03/10 10:45:34;;;;;;;9.02;5.13;;;;;;;15.20;62.65;93541.06;5147187;27;20196;-81
2023/03/10 10:48:01;;;;;;;7.53;4.78;;;;;;;15.08;62.50;93533.19;5146296;27;20209;-81
2023/03/10 10:50:30;;;;;;;9.45;5.03;;;;;;;15.24;62.45;93541.84;5133146;27;20201;-81
2023/03/10 10:53:20;;;;;;;10.88;5.47;;;;;;;15.15;62.63;93533.25;5146431;27;20667;-81
2023/03/10 10:55:59;;;;;;;17.02;5.72;;;;;;;15.10;63.06;93530.88;5146998;27;20299;-81
2023/03/10 10:58:28;;;;;;;10.05;4.82;;;;;;;14.85;63.46;93530.75;5146213;27;20275;-83
2023/03/10 11:00:57;;;;;;;10.50;5.38;;;;;;;14.93;63.17;93530.41;5140746;27;20192;-81
2023/03/10 11:03:27;;;;;;;15.45;5.97;;;;;;;15.14;63.47;93528.97;5154813;27;20246;-82
2023/03/10 11:05:56;;;;;;;15.48;5.60;;;;;;;15.08;63.23;93527.75;5134015;27;20253;-81
2023/03/10 11:08:33;;;;;;;15.27;5.40;;;;;;;15.06;64.11;93524.63;5146798;27;20200;-80
2023/03/10 11:11:11;;;;;;;10.35;5.50;;;;;;;14.80;64.38;93523.72;5142961;27;20647;-84
2023/03/10 11:13:50;;;;;;;11.25;4.90;;;;;;;14.47;66.37;93504.84;5135918;27;20632;-83
2023/03/10 11:16:24;;;;;;;5.20;2.40;;;;;;;14.26;66.69;93485.56;5147077;27;20886;-82
2023/03/10 11:19:00;;;;;;;5.13;2.35;;;;;;;14.14;68.72;93481.22;5140898;27;20215;-82
2023/03/10 11:21:34;;;;;;;2.40;1.50;;;;;;;14.05;67.60;93459.75;5155380;27;20185;-81
2023/03/10 11:24:12;;;;;;;2.15;1.40;;;;;;;14.07;65.97;93460.16;5147001;27;20759;-81
2023/03/10 11:26:48;;;;;;;2.55;1.30;;;;;;;14.25;65.94;93468.44;5137683;27;20193;-82
2023/03/10 11:29:24;;;;;;;2.15;1.02;;;;;;;14.24;66.08;93456.75;5140419;27;20196;-81
2023/03/10 11:31:56;;;;;;;2.00;0.80;;;;;;;14.34;66.08;93446.34;5142867;27;20192;-85
2023/03/10 11:34:29;;;;;;;0.93;0.70;;;;;;;14.27;66.18;93433.44;5141167;27;20245;-79
2023/03/10 11:37:07;;;;;;;1.00;0.90;;;;;;;14.26;65.47;93444.72;5145118;27;20199;-84
2023/03/10 11:39:48;;;;;;;1.80;1.00;;;;;;;14.24;64.08;93443.16;5149665;27;20230;-84
2023/03/10 11:42:25;;;;;;;2.30;1.33;;;;;;;14.12;64.39;93432.56;5146045;27;20288;-84
2023/03/10 11:45:03;;;;;;;6.82;1.33;;;;;;;14.08;66.20;93436.41;5140177;27;20184;-81